Time;durP1;ratioP1;P1;durP2;ratioP2;P2;SDS_P1;SDS_P2;PMS_P1;PMS_P2;Temp;Humidity;BMP_temperature;BMP_pressure;BME280_temperature;BME280_humidity;BME280_pressure;Samples;Min_cycle;Max_cycle;Signal;HPM_P1;HPM_P2
2021/05/05 00:01:55;;;;;;;8.18;4.05;;;;;;;12.55;57.44;97930.94;4991300;28;20438;-79
2021/05/05 00:04:21;;;;;;;8.38;3.72;;;;;;;12.51;57.66;97927.06;4999219;28;20109;-77
2021/05/05 00:06:47;;;;;;;7.07;3.33;;;;;;;12.69;57.65;97937.22;4999476;28;20101;-77
2021/05/05 00:09:13;;;;;;;8.43;3.63;;;;;;;12.58;57.27;97922.00;4991797;28;20022;-77
2021/05/05 00:11:40;;;;;;;6.10;3.42;;;;;;;12.73;57.09;97922.84;4994183;28;20114;-79
2021/05/05 00:14:06;;;;;;;7.07;3.42;;;;;;;12.49;57.47;97890.75;5001570;28;20105;-78
2021/05/05 00:16:32;;;;;;;10.57;3.58;;;;;;;12.41;57.79;97896.03;4977437;28;20117;-79
2021/05/05 00:18:57;;;;;;;7.38;3.42;;;;;;;12.42;58.53;97899.44;4987282;28;20033;-78
2021/05/05 00:21:23;;;;;;;6.90;3.60;;;;;;;12.46;58.49;97887.66;4995274;28;20026;-79
2021/05/05 00:23:49;;;;;;;9.05;4.10;;;;;;;12.33;58.39;97864.78;5015427;28;20038;-79
2021/05/05 00:26:15;;;;;;;7.32;3.90;;;;;;;12.39;58.93;97866.69;4998442;28;20087;-78
2021/05/05 00:28:40;;;;;;;7.90;4.10;;;;;;;12.33;59.26;97853.56;5001951;28;20033;-79
2021/05/05 00:31:06;;;;;;;7.75;3.90;;;;;;;12.20;59.70;97849.72;4999446;28;20044;-79
2021/05/05 00:33:31;;;;;;;7.47;3.92;;;;;;;12.27;59.42;97862.88;5002679;28;20018;-78
2021/05/05 00:35:57;;;;;;;6.55;3.83;;;;;;;12.29;60.00;97876.56;4997339;28;20077;-78
2021/05/05 00:38:22;;;;;;;6.97;3.95;;;;;;;12.00;59.06;97844.16;4982524;28;20032;-79
2021/05/05 00:40:48;;;;;;;6.45;2.90;;;;;;;12.17;57.95;97857.09;4983402;28;20026;-78
2021/05/05 00:43:13;;;;;;;9.38;3.70;;;;;;;11.77;60.11;97861.50;4980041;28;20026;-79
2021/05/05 00:45:39;;;;;;;8.73;4.10;;;;;;;11.72;60.63;97862.84;5014481;28;20124;-79
2021/05/05 00:48:05;;;;;;;7.68;3.92;;;;;;;11.61;61.29;97881.44;5015476;28;20032;-79
2021/05/05 00:50:31;;;;;;;7.85;3.95;;;;;;;11.66;60.71;97868.75;4978202;28;20033;-79
2021/05/05 00:52:56;;;;;;;7.13;4.55;;;;;;;11.65;61.16;97872.31;5006629;28;20042;-79
2021/05/05 00:55:21;;;;;;;8.50;3.67;;;;;;;11.32;60.45;97841.19;4997975;28;20071;-79
2021/05/05 00:57:48;;;;;;;6.65;4.07;;;;;;;11.41;61.11;97869.78;4997336;28;20030;-78
2021/05/05 01:00:17;;;;;;;10.00;3.65;;;;;;;11.40;60.47;97857.78;4984428;28;20652;-78
2021/05/05 01:02:42;;;;;;;6.75;3.30;;;;;;;11.43;60.32;97836.63;5016110;28;20491;-78
2021/05/05 01:05:09;;;;;;;7.85;3.28;;;;;;;11.38;60.35;97824.09;5010209;28;20034;-79
2021/05/05 01:07:35;;;;;;;7.13;3.30;;;;;;;11.67;59.92;97859.13;4986924;28;20029;-79
2021/05/05 01:10:00;;;;;;;6.93;3.35;;;;;;;11.81;59.31;97862.78;4990577;28;20026;-79
2021/05/05 01:12:26;;;;;;;6.03;3.10;;;;;;;11.92;58.69;97846.81;4974229;28;20100;-78
2021/05/05 01:14:51;;;;;;;6.25;3.13;;;;;;;11.48;59.65;97855.13;4999714;28;20535;-78
2021/05/05 01:17:17;;;;;;;6.18;3.10;;;;;;;11.61;60.00;97876.25;4974537;28;20038;-79
2021/05/05 01:19:42;;;;;;;7.80;3.72;;;;;;;11.44;59.69;97846.84;4993547;28;20041;-80
2021/05/05 01:22:08;;;;;;;9.65;3.72;;;;;;;11.47;60.69;97871.75;4983592;28;20476;-78
2021/05/05 01:24:34;;;;;;;7.40;3.20;;;;;;;11.38;60.84;97870.16;4996561;28;20089;-78
2021/05/05 01:27:00;;;;;;;7.63;3.28;;;;;;;11.34;60.66;97849.66;5018537;28;20044;-79
2021/05/05 01:29:26;;;;;;;6.22;3.47;;;;;;;11.45;61.01;97858.88;4982116;28;20041;-79
2021/05/05 01:31:52;;;;;;;7.82;3.30;;;;;;;11.36;60.26;97828.66;4995765;28;20034;-78
2021/05/05 01:34:17;;;;;;;6.18;3.10;;;;;;;11.83;59.48;97866.88;4980539;28;20040;-78
2021/05/05 01:36:43;;;;;;;6.40;3.28;;;;;;;11.98;59.53;97860.97;4982813;28;20050;-78
2021/05/05 01:39:13;;;;;;;6.03;3.00;;;;;;;11.90;59.39;97831.38;5002793;28;20109;-78
2021/05/05 01:41:39;;;;;;;7.35;3.22;;;;;;;12.14;59.07;97852.22;4987569;28;20038;-79
2021/05/05 01:44:05;;;;;;;5.47;3.08;;;;;;;12.21;59.14;97847.94;4997811;28;20033;-78
2021/05/05 01:46:30;;;;;;;7.93;3.70;;;;;;;12.18;59.43;97838.66;4990577;28;20036;-79
2021/05/05 01:48:55;;;;;;;6.63;3.53;;;;;;;12.06;60.00;97832.22;4998698;28;20121;-79
2021/05/05 01:51:21;;;;;;;7.40;3.58;;;;;;;12.15;60.31;97840.81;5000709;28;20034;-80
2021/05/05 01:53:46;;;;;;;6.75;3.67;;;;;;;12.20;60.52;97838.50;4983718;28;20119;-78
2021/05/05 01:56:12;;;;;;;8.77;3.70;;;;;;;12.13;60.38;97808.91;4999418;28;20092;-79
2021/05/05 01:58:37;;;;;;;7.22;3.65;;;;;;;12.08;60.62;97815.47;4999058;28;20049;-78
2021/05/05 02:01:03;;;;;;;6.40;3.60;;;;;;;12.15;61.65;97817.34;5016328;28;20033;-79
2021/05/05 02:03:29;;;;;;;7.18;3.40;;;;;;;12.14;61.13;97785.28;4998554;28;20083;-78
2021/05/05 02:05:55;;;;;;;6.82;3.40;;;;;;;12.31;61.08;97805.00;5003121;28;20033;-79
2021/05/05 02:08:20;;;;;;;6.57;3.33;;;;;;;12.20;61.11;97784.56;4998905;28;20032;-79
2021/05/05 02:10:46;;;;;;;8.02;3.30;;;;;;;12.11;61.33;97754.34;4996142;28;20092;-78
2021/05/05 02:13:13;;;;;;;7.03;3.08;;;;;;;12.07;62.22;97758.31;5020460;28;20010;-79
2021/05/05 02:15:38;;;;;;;6.95;3.28;;;;;;;12.15;62.79;97773.06;5009472;28;20029;-77
2021/05/05 02:18:06;;;;;;;6.40;2.95;;;;;;;12.20;63.35;97781.97;5028136;28;20026;-79
2021/05/05 02:20:32;;;;;;;6.85;3.17;;;;;;;12.09;63.22;97770.16;5025845;28;20044;-78
2021/05/05 02:22:57;;;;;;;7.30;3.25;;;;;;;12.21;63.18;97782.78;5005061;28;20034;-78
2021/05/05 02:25:23;;;;;;;6.40;3.03;;;;;;;12.08;62.73;97741.66;4991964;28;20066;-79
2021/05/05 02:27:50;;;;;;;5.80;3.20;;;;;;;12.14;62.32;97745.38;5020469;28;20066;-78
2021/05/05 02:30:37;;;;;;;5.75;3.10;;;;;;;12.37;62.88;97769.59;5755211;23;20274;-78
2021/05/05 02:33:03;;;;;;;5.97;3.28;;;;;;;12.30;62.75;97746.06;4963122;28;20038;-78
2021/05/05 02:35:28;;;;;;;6.65;3.00;;;;;;;12.50;62.74;97762.00;4961176;28;20023;-78
2021/05/05 02:37:54;;;;;;;6.63;3.17;;;;;;;12.54;62.90;97752.03;4982322;28;20545;-77
2021/05/05 02:40:19;;;;;;;8.40;2.97;;;;;;;12.53;62.95;97739.16;4973447;28;20057;-78
2021/05/05 02:42:45;;;;;;;6.57;3.30;;;;;;;12.46;62.46;97737.25;4955928;28;20035;-78
2021/05/05 02:45:11;;;;;;;6.95;3.00;;;;;;;12.61;62.36;97739.06;4959270;28;20545;-78
2021/05/05 02:47:37;;;;;;;7.20;3.15;;;;;;;12.64;61.96;97738.72;4961167;28;20027;-78
2021/05/05 02:50:04;;;;;;;7.50;3.20;;;;;;;12.51;62.33;97721.09;4956306;28;20618;-78
2021/05/05 02:52:29;;;;;;;6.85;3.10;;;;;;;12.46;62.65;97729.44;4965047;28;20046;-78
2021/05/05 02:54:54;;;;;;;6.85;3.28;;;;;;;12.18;63.88;97721.41;4951766;28;20031;-78
2021/05/05 02:57:20;;;;;;;7.47;3.28;;;;;;;12.38;62.79;97728.72;4951551;28;20431;-78
2021/05/05 02:59:45;;;;;;;7.43;3.30;;;;;;;12.41;63.17;97721.34;4950668;28;20085;-78
2021/05/05 03:02:10;;;;;;;6.85;3.30;;;;;;;12.53;63.35;97731.34;4960956;28;20514;-78
2021/05/05 03:04:36;;;;;;;7.43;3.53;;;;;;;12.22;64.18;97727.88;4952773;28;20100;-79
2021/05/05 03:07:01;;;;;;;7.35;3.20;;;;;;;12.02;64.57;97730.16;4961672;28;20464;-78
2021/05/05 03:09:27;;;;;;;8.88;3.47;;;;;;;12.08;64.63;97739.91;4956826;28;20075;-78
2021/05/05 03:11:55;;;;;;;5.90;3.17;;;;;;;12.30;64.80;97738.25;4954997;28;20541;-78
2021/05/05 03:14:21;;;;;;;8.70;3.22;;;;;;;12.35;65.24;97737.69;4942002;28;20035;-78
2021/05/05 03:16:47;;;;;;;6.95;3.28;;;;;;;12.32;65.41;97730.25;4951399;28;20033;-78
2021/05/05 03:19:12;;;;;;;6.38;3.20;;;;;;;12.35;65.52;97716.84;4961410;28;20023;-78
2021/05/05 03:21:39;;;;;;;7.32;3.00;;;;;;;12.39;64.97;97706.88;4948304;28;20037;-78
2021/05/05 03:24:06;;;;;;;6.18;3.05;;;;;;;12.37;64.90;97711.44;4971917;28;20085;-77
2021/05/05 03:26:31;;;;;;;7.85;3.20;;;;;;;12.29;65.16;97694.91;4958776;28;20193;-77
2021/05/05 03:28:57;;;;;;;6.43;3.40;;;;;;;12.31;64.97;97713.78;4959134;28;20657;-77
2021/05/05 03:31:22;;;;;;;6.57;3.20;;;;;;;12.23;65.31;97710.44;4951467;28;20893;-78
2021/05/05 03:33:47;;;;;;;7.65;3.40;;;;;;;12.21;65.59;97720.22;4957410;28;20031;-78
2021/05/05 03:36:13;;;;;;;6.57;3.25;;;;;;;12.10;66.04;97717.06;4975796;28;20057;-78
2021/05/05 03:38:38;;;;;;;6.90;3.22;;;;;;;12.23;65.75;97731.28;4956179;28;20590;-78
2021/05/05 03:41:03;;;;;;;7.38;2.88;;;;;;;12.25;66.16;97743.16;4953718;28;20071;-78
2021/05/05 03:43:29;;;;;;;7.07;3.20;;;;;;;12.14;66.30;97743.59;4958941;28;20035;-78
2021/05/05 03:45:54;;;;;;;7.30;3.60;;;;;;;12.07;66.48;97740.88;4961624;28;20027;-78
2021/05/05 03:48:23;;;;;;;7.50;3.55;;;;;;;12.07;66.76;97740.06;4944224;28;20027;-78
2021/05/05 03:50:49;;;;;;;6.60;3.28;;;;;;;12.14;66.86;97742.75;4952985;28;20105;-78
2021/05/05 03:53:14;;;;;;;7.18;3.17;;;;;;;12.22;66.13;97720.06;4962126;28;20159;-78
2021/05/05 03:55:39;;;;;;;7.45;3.10;;;;;;;12.37;65.80;97727.88;4958827;28;20027;-78
2021/05/05 03:58:05;;;;;;;7.15;3.25;;;;;;;12.38;65.82;97721.69;4951480;28;20362;-78
2021/05/05 04:00:30;;;;;;;5.72;2.97;;;;;;;12.32;65.83;97738.06;4949025;28;20056;-78
2021/05/05 04:02:56;;;;;;;6.40;3.30;;;;;;;12.31;65.55;97737.22;4957636;28;20484;-77
2021/05/05 04:05:21;;;;;;;9.10;3.50;;;;;;;12.35;66.03;97758.53;4966976;28;20568;-77
2021/05/05 04:07:46;;;;;;;8.18;3.40;;;;;;;12.28;66.05;97739.38;4965435;28;20065;-77
2021/05/05 04:10:12;;;;;;;7.78;3.58;;;;;;;12.29;66.24;97754.03;4952711;28;20022;-78
2021/05/05 04:12:37;;;;;;;7.47;3.30;;;;;;;12.39;65.74;97759.00;4954727;28;20126;-77
2021/05/05 04:15:06;;;;;;;8.32;4.50;;;;;;;12.27;66.68;97758.63;4953455;28;20027;-77
2021/05/05 04:17:32;;;;;;;7.82;3.22;;;;;;;12.31;66.33;97747.66;4954685;28;20085;-77
2021/05/05 04:19:58;;;;;;;7.03;3.28;;;;;;;12.42;65.60;97743.81;4958233;28;20023;-78
2021/05/05 04:22:24;;;;;;;5.88;3.22;;;;;;;12.52;65.66;97755.78;4938689;28;20043;-77
2021/05/05 04:24:50;;;;;;;8.07;3.17;;;;;;;12.44;65.78;97759.28;4956039;28;20038;-77
2021/05/05 04:27:17;;;;;;;8.65;3.30;;;;;;;12.47;65.65;97771.97;4957565;28;20855;-77
2021/05/05 04:29:42;;;;;;;7.32;3.15;;;;;;;12.44;66.08;97767.91;4957073;28;20030;-77
2021/05/05 04:32:08;;;;;;;6.55;2.92;;;;;;;12.48;65.51;97760.53;4951186;28;20023;-77
2021/05/05 04:34:34;;;;;;;7.97;3.40;;;;;;;12.31;66.06;97741.66;4956972;28;20057;-78
2021/05/05 04:36:59;;;;;;;8.57;3.17;;;;;;;12.45;65.85;97751.28;4959769;28;20023;-77
2021/05/05 04:39:25;;;;;;;5.70;2.75;;;;;;;12.54;65.22;97740.78;4963212;28;20026;-77
2021/05/05 04:41:50;;;;;;;6.80;3.08;;;;;;;12.57;65.08;97725.56;4954681;28;20419;-77
2021/05/05 04:44:16;;;;;;;6.28;3.22;;;;;;;12.54;65.40;97723.34;4940971;28;20027;-77
2021/05/05 04:46:41;;;;;;;7.13;3.08;;;;;;;12.61;65.22;97739.91;4954938;28;20034;-77
2021/05/05 04:49:07;;;;;;;6.82;3.17;;;;;;;12.56;65.14;97726.59;4958749;28;20658;-79
2021/05/05 04:51:33;;;;;;;7.45;3.08;;;;;;;12.55;65.15;97711.09;4957874;28;20088;-79
2021/05/05 04:53:59;;;;;;;6.32;2.90;;;;;;;12.64;65.02;97729.09;4962305;28;20023;-78
2021/05/05 04:56:24;;;;;;;7.63;3.17;;;;;;;12.63;64.63;97718.84;4945197;28;20027;-77
2021/05/05 04:58:49;;;;;;;6.72;3.30;;;;;;;12.79;64.45;97728.28;4955953;28;20058;-77
2021/05/05 05:01:15;;;;;;;6.30;3.10;;;;;;;12.89;64.03;97727.03;4946993;28;20091;-78
2021/05/05 05:03:40;;;;;;;5.70;3.20;;;;;;;12.81;64.23;97724.53;4964439;28;20038;-77
2021/05/05 05:06:06;;;;;;;6.65;3.40;;;;;;;12.94;64.55;97736.09;4967701;28;20026;-78
2021/05/05 05:08:31;;;;;;;6.05;3.50;;;;;;;12.86;64.66;97743.03;4961404;28;20031;-78
2021/05/05 05:10:57;;;;;;;7.43;3.35;;;;;;;12.88;64.94;97754.09;4964487;28;20022;-78
2021/05/05 05:13:22;;;;;;;7.82;3.30;;;;;;;12.68;64.93;97746.00;4964743;28;20452;-78
2021/05/05 05:15:48;;;;;;;7.75;3.30;;;;;;;12.61;64.79;97739.06;4962076;28;20110;-79
2021/05/05 05:18:13;;;;;;;6.28;3.08;;;;;;;12.61;65.77;97745.13;4960942;28;20050;-74
2021/05/05 05:20:39;;;;;;;7.97;3.58;;;;;;;12.67;65.53;97741.78;4949290;28;20039;-74
2021/05/05 05:23:04;;;;;;;7.30;3.35;;;;;;;12.78;64.37;97730.09;4953919;28;20071;-74
2021/05/05 05:25:30;;;;;;;7.07;3.65;;;;;;;12.82;64.37;97726.13;4958788;28;20559;-74
2021/05/05 05:27:55;;;;;;;6.03;3.35;;;;;;;12.71;64.79;97715.34;4940642;28;20019;-73
2021/05/05 05:30:21;;;;;;;8.20;3.72;;;;;;;12.80;64.71;97715.06;4951791;28;20407;-74
2021/05/05 05:32:48;;;;;;;9.80;3.40;;;;;;;12.65;64.42;97714.28;4954086;28;20130;-73
2021/05/05 05:35:14;;;;;;;6.75;3.15;;;;;;;12.67;64.39;97705.25;4954686;28;20034;-76
2021/05/05 05:37:40;;;;;;;8.20;3.38;;;;;;;12.80;63.48;97724.69;4955506;28;20027;-74
2021/05/05 05:40:06;;;;;;;6.88;3.20;;;;;;;12.81;63.75;97729.75;4964872;28;20030;-75
2021/05/05 05:42:32;;;;;;;7.57;3.70;;;;;;;12.53;64.33;97724.31;4968164;28;20109;-75
2021/05/05 05:44:57;;;;;;;8.65;3.85;;;;;;;12.57;64.48;97722.97;4955448;28;20181;-75
2021/05/05 05:47:23;;;;;;;6.93;3.15;;;;;;;12.39;64.88;97717.28;4935852;28;20235;-76
2021/05/05 05:49:48;;;;;;;7.80;3.63;;;;;;;12.33;65.02;97697.16;4948499;28;20033;-77
2021/05/05 05:52:14;;;;;;;22.00;4.05;;;;;;;12.57;64.57;97696.91;4956282;28;20121;-71
2021/05/05 05:54:39;;;;;;;6.75;3.70;;;;;;;12.79;64.13;97695.19;4939509;28;20027;-71
2021/05/05 05:57:05;;;;;;;7.60;3.42;;;;;;;12.92;63.31;97685.91;4936666;28;20606;-70
2021/05/05 05:59:30;;;;;;;6.65;3.60;;;;;;;13.11;63.27;97690.56;4952688;28;20767;-71
2021/05/05 06:01:56;;;;;;;6.70;3.72;;;;;;;13.25;62.71;97684.50;4952930;28;20034;-71
2021/05/05 06:04:21;;;;;;;9.40;4.22;;;;;;;13.33;62.55;97677.59;4950491;28;20101;-70
2021/05/05 06:06:47;;;;;;;7.90;3.45;;;;;;;13.34;62.83;97668.75;4951799;28;20102;-71
2021/05/05 06:09:12;;;;;;;7.15;3.60;;;;;;;13.41;62.96;97661.78;4948266;28;20024;-67
2021/05/05 06:11:38;;;;;;;7.10;3.55;;;;;;;13.47;62.39;97655.84;4954070;28;20026;-68
2021/05/05 06:14:04;;;;;;;7.07;3.65;;;;;;;13.56;62.36;97661.72;4950010;28;20097;-68
2021/05/05 06:16:30;;;;;;;7.30;3.80;;;;;;;13.55;61.78;97666.16;4954726;28;20105;-71
2021/05/05 06:18:55;;;;;;;6.80;3.67;;;;;;;13.62;61.95;97680.06;4969981;28;20102;-70
2021/05/05 06:21:21;;;;;;;9.30;4.00;;;;;;;13.52;61.91;97671.72;4970261;28;20022;-71
2021/05/05 06:23:46;;;;;;;8.80;4.03;;;;;;;13.48;62.08;97673.09;4953091;28;20039;-71
2021/05/05 06:26:12;;;;;;;12.98;4.60;;;;;;;13.51;62.28;97677.13;4952149;28;20061;-71
2021/05/05 06:28:37;;;;;;;8.52;4.60;;;;;;;13.51;62.18;97680.56;4952217;28;20585;-71
2021/05/05 06:31:03;;;;;;;10.15;4.32;;;;;;;13.55;61.76;97665.34;4944003;28;20082;-70
2021/05/05 06:33:29;;;;;;;6.85;3.72;;;;;;;13.62;62.71;97687.91;4957227;28;20084;-70
2021/05/05 06:35:54;;;;;;;8.23;3.72;;;;;;;13.61;62.27;97694.13;4951945;28;20031;-72
2021/05/05 06:38:20;;;;;;;7.78;3.47;;;;;;;13.62;63.35;97715.84;4956683;28;20463;-70
2021/05/05 06:40:45;;;;;;;8.88;3.78;;;;;;;13.58;62.66;97718.00;4957792;28;20030;-71
2021/05/05 06:43:11;;;;;;;10.52;4.03;;;;;;;13.52;62.92;97702.25;4961295;28;20050;-68
2021/05/05 06:45:37;;;;;;;6.20;3.40;;;;;;;13.52;62.32;97702.25;4954836;28;20027;-71
2021/05/05 06:48:03;;;;;;;9.35;3.72;;;;;;;13.60;61.75;97694.31;4950628;28;20034;-71
2021/05/05 06:50:28;;;;;;;8.00;4.18;;;;;;;13.56;61.78;97674.78;4948971;28;20215;-71
2021/05/05 06:52:57;;;;;;;8.68;3.28;;;;;;;13.60;61.65;97687.28;4956075;28;20068;-70
2021/05/05 06:55:23;;;;;;;6.03;2.97;;;;;;;13.69;61.31;97677.53;4955425;28;20107;-70
2021/05/05 06:57:49;;;;;;;6.57;3.70;;;;;;;13.80;60.81;97681.44;4948465;28;20102;-70
2021/05/05 07:00:15;;;;;;;7.80;3.22;;;;;;;13.81;60.92;97680.44;4947310;28;20135;-71
2021/05/05 07:02:41;;;;;;;7.07;3.05;;;;;;;13.85;61.57;97689.50;4955881;28;20452;-71
2021/05/05 07:05:07;;;;;;;6.60;3.30;;;;;;;13.84;60.81;97683.47;4964435;28;20058;-70
2021/05/05 07:07:33;;;;;;;7.72;3.28;;;;;;;13.88;60.42;97694.38;4968979;28;21363;-68
2021/05/05 07:09:58;;;;;;;7.10;3.42;;;;;;;13.91;60.67;97693.16;4965016;28;20018;-69
2021/05/05 07:12:23;;;;;;;8.10;3.38;;;;;;;13.92;60.55;97703.44;4954691;28;20031;-70
2021/05/05 07:14:49;;;;;;;6.95;3.35;;;;;;;13.83;60.22;97689.69;4949385;28;20035;-70
2021/05/05 07:17:14;;;;;;;7.13;3.10;;;;;;;13.86;60.29;97692.94;4947755;28;20112;-70
2021/05/05 07:19:40;;;;;;;6.28;3.15;;;;;;;13.82;60.84;97688.09;4976049;28;20035;-71
2021/05/05 07:22:06;;;;;;;8.55;3.55;;;;;;;13.88;60.55;97683.91;4960916;28;20104;-71
2021/05/05 07:24:31;;;;;;;6.40;3.25;;;;;;;13.89;60.79;97667.25;4947388;28;20550;-70
2021/05/05 07:26:57;;;;;;;7.30;3.40;;;;;;;14.03;60.38;97681.22;4956715;28;20160;-69
2021/05/05 07:29:22;;;;;;;7.65;3.75;;;;;;;14.04;59.92;97696.72;4974057;28;20085;-71
2021/05/05 07:31:48;;;;;;;10.88;3.75;;;;;;;13.90;60.16;97694.19;4955964;28;20042;-71
2021/05/05 07:34:15;;;;;;;9.60;4.03;;;;;;;13.97;60.14;97687.22;4953993;28;20459;-70
2021/05/05 07:36:48;;;;;;;8.20;3.97;;;;;;;14.04;60.16;97701.94;4942617;28;20039;-72
2021/05/05 07:49:38;;;;;;;6.97;3.38;;;;;;;14.26;59.71;97680.19;4945381;28;20494;-70
2021/05/05 07:52:03;;;;;;;7.82;3.65;;;;;;;14.21;59.74;97680.75;4954155;28;20027;-72
2021/05/05 07:54:29;;;;;;;7.18;3.30;;;;;;;14.30;58.55;97684.84;4956708;28;20492;-72
2021/05/05 07:56:54;;;;;;;13.60;3.92;;;;;;;14.34;58.57;97685.25;4948758;28;20400;-73
2021/05/05 07:59:20;;;;;;;24.70;8.63;;;;;;;14.40;58.51;97676.63;4950352;28;20027;-72
2021/05/05 08:01:45;;;;;;;19.27;8.48;;;;;;;14.41;58.80;97673.84;4957778;28;20105;-72
2021/05/05 08:04:10;;;;;;;19.83;7.90;;;;;;;14.34;59.25;97661.72;4947851;28;20647;-73
2021/05/05 08:06:36;;;;;;;13.90;6.75;;;;;;;14.39;58.86;97660.16;4949033;28;20547;-72
2021/05/05 08:09:02;;;;;;;9.95;4.50;;;;;;;14.45;59.15;97673.47;4949126;28;20031;-72
2021/05/05 08:11:28;;;;;;;8.23;5.53;;;;;;;14.52;59.12;97666.47;4949433;28;20025;-71
2021/05/05 08:13:53;;;;;;;8.40;5.18;;;;;;;14.62;58.93;97661.72;4953259;28;20023;-71
2021/05/05 08:16:20;;;;;;;9.55;5.70;;;;;;;14.67;58.81;97661.13;4951884;28;20436;-70
2021/05/05 08:18:47;;;;;;;12.13;7.05;;;;;;;14.69;58.39;97657.31;4963601;28;20035;-72
2021/05/05 08:21:13;;;;;;;11.13;5.47;;;;;;;14.68;57.96;97658.31;4956661;28;20594;-72
2021/05/05 08:23:39;;;;;;;10.88;4.65;;;;;;;14.75;58.18;97671.44;4975109;28;20027;-69
2021/05/05 08:26:05;;;;;;;15.48;7.28;;;;;;;14.77;58.01;97665.00;4975796;28;20021;-74
2021/05/05 08:28:31;;;;;;;16.05;8.00;;;;;;;14.78;57.86;97666.63;4952953;28;20061;-70
2021/05/05 08:30:57;;;;;;;18.92;8.55;;;;;;;14.88;58.44;97652.38;4953922;28;20046;-70
2021/05/05 08:33:23;;;;;;;14.07;6.47;;;;;;;14.97;58.02;97659.06;4956205;28;20089;-70
2021/05/05 08:35:48;;;;;;;7.93;4.45;;;;;;;14.86;58.54;97647.34;4952777;28;20030;-70
2021/05/05 08:38:14;;;;;;;11.32;5.07;;;;;;;14.97;58.98;97661.69;4948181;28;20027;-70
2021/05/05 08:40:40;;;;;;;24.08;10.50;;;;;;;14.97;58.96;97657.25;4954726;28;20062;-71
2021/05/05 08:43:05;;;;;;;23.02;10.35;;;;;;;15.01;59.19;97655.03;4946426;28;20066;-71
2021/05/05 08:45:31;;;;;;;10.02;5.15;;;;;;;15.05;57.97;97645.78;4949074;28;21027;-70
2021/05/05 08:47:59;;;;;;;7.18;4.05;;;;;;;15.09;57.28;97646.19;4952733;28;20322;-70
2021/05/05 08:50:28;;;;;;;9.32;4.45;;;;;;;15.13;57.02;97650.03;4938455;28;20495;-71
2021/05/05 08:52:54;;;;;;;7.55;4.43;;;;;;;15.06;57.10;97655.25;4950843;28;20050;-71
2021/05/05 08:55:21;;;;;;;7.90;3.72;;;;;;;15.06;57.65;97663.13;4946429;28;20058;-71
2021/05/05 08:57:47;;;;;;;8.57;3.63;;;;;;;14.91;56.87;97654.59;4947508;28;20033;-70
2021/05/05 09:00:17;;;;;;;8.27;4.05;;;;;;;14.72;56.62;97635.19;4953486;28;20109;-71
2021/05/05 09:02:42;;;;;;;6.63;3.67;;;;;;;14.70;56.99;97656.31;4953544;28;20031;-71
2021/05/05 09:05:12;;;;;;;9.30;4.00;;;;;;;14.84;57.74;97645.91;4958497;28;20030;-71
2021/05/05 09:07:39;;;;;;;8.73;4.80;;;;;;;14.92;57.70;97633.47;4949939;28;20038;-71
2021/05/05 09:10:07;;;;;;;8.30;4.35;;;;;;;14.98;57.40;97637.09;4949555;28;20026;-71
2021/05/05 09:12:37;;;;;;;9.05;4.30;;;;;;;15.15;56.56;97635.75;4940933;28;20039;-71
2021/05/05 09:15:02;;;;;;;8.68;4.00;;;;;;;15.19;57.03;97634.34;4969359;28;20026;-72
2021/05/05 09:17:31;;;;;;;7.65;3.80;;;;;;;15.21;58.14;97630.75;4948935;28;20042;-72
2021/05/05 09:20:06;;;;;;;6.97;3.42;;;;;;;15.22;57.77;97642.81;4948504;28;20027;-71
2021/05/05 09:22:37;;;;;;;7.20;3.40;;;;;;;15.25;57.74;97640.59;4953120;28;20118;-72
2021/05/05 09:25:05;;;;;;;6.95;3.03;;;;;;;15.22;57.45;97627.91;4955923;28;20023;-72
2021/05/05 09:27:33;;;;;;;6.57;3.20;;;;;;;15.10;57.33;97634.72;4953215;28;20117;-71
2021/05/05 09:30:00;;;;;;;7.55;3.15;;;;;;;15.19;56.97;97631.72;4949684;28;20077;-72
2021/05/05 09:32:26;;;;;;;5.45;2.97;;;;;;;15.14;56.69;97623.66;4954465;28;20903;-72
2021/05/05 09:34:59;;;;;;;6.68;3.05;;;;;;;15.04;56.95;97623.25;4955563;28;20121;-71
2021/05/05 09:37:25;;;;;;;6.55;2.95;;;;;;;14.97;57.51;97625.03;4955531;28;20041;-71
2021/05/05 09:40:06;;;;;;;7.90;2.90;;;;;;;15.03;57.04;97633.91;4953113;28;20093;-72
2021/05/05 09:42:33;;;;;;;5.80;2.63;;;;;;;15.11;56.81;97624.06;4954234;28;20192;-71
2021/05/05 09:45:07;;;;;;;8.52;2.65;;;;;;;14.98;56.71;97621.41;4958372;28;20031;-72
2021/05/05 09:47:56;;;;;;;8.95;3.00;;;;;;;15.05;55.68;97626.66;4951777;28;20388;-71
2021/05/05 09:50:37;;;;;;;5.68;2.95;;;;;;;14.92;57.17;97593.41;4949060;28;20121;-71
2021/05/05 09:53:18;;;;;;;6.70;3.03;;;;;;;15.34;55.35;97609.81;4958719;28;20030;-73
2021/05/05 09:55:45;;;;;;;7.13;2.75;;;;;;;15.43;54.31;97610.41;4946104;28;20527;-70
2021/05/05 09:58:26;;;;;;;9.25;3.20;;;;;;;15.58;54.76;97618.88;4955697;28;20039;-71
2021/05/05 10:01:08;;;;;;;6.25;2.72;;;;;;;15.60;54.27;97614.25;4956952;28;20073;-72
2021/05/05 10:03:39;;;;;;;7.50;3.35;;;;;;;15.85;53.35;97608.44;4962995;28;20030;-75
2021/05/05 10:06:26;;;;;;;6.28;2.92;;;;;;;15.90;52.74;97604.19;4952729;28;20723;-76
2021/05/05 10:09:00;;;;;;;6.80;2.85;;;;;;;15.95;53.97;97593.09;4948747;28;20027;-78
2021/05/05 10:11:32;;;;;;;6.00;3.05;;;;;;;16.05;52.90;97592.69;4957184;28;20173;-76
2021/05/05 10:14:00;;;;;;;8.40;3.50;;;;;;;15.75;53.33;97593.94;4949790;28;20106;-75
2021/05/05 10:16:27;;;;;;;11.80;3.30;;;;;;;16.07;53.23;97601.94;4953316;28;20086;-74
2021/05/05 10:18:53;;;;;;;8.63;2.95;;;;;;;16.28;52.53;97585.19;4976630;28;20516;-78
2021/05/05 10:21:22;;;;;;;6.55;3.25;;;;;;;16.12;52.33;97591.66;4957920;28;20031;-75
2021/05/05 10:23:50;;;;;;;7.35;3.65;;;;;;;16.24;52.52;97589.19;4944544;28;20029;-75
2021/05/05 10:26:19;;;;;;;8.00;3.60;;;;;;;16.22;52.71;97588.59;4965829;28;20057;-74
2021/05/05 10:28:46;;;;;;;6.07;3.30;;;;;;;16.22;51.74;97577.31;4974258;28;20023;-74
2021/05/05 10:31:24;;;;;;;8.35;4.10;;;;;;;16.26;51.98;97579.34;4950391;28;20408;-74
2021/05/05 10:33:52;;;;;;;6.78;3.58;;;;;;;16.18;52.50;97566.44;4951421;28;20622;-74
2021/05/05 10:36:40;;;;;;;6.97;3.55;;;;;;;16.40;51.95;97581.91;4958254;28;20616;-74
2021/05/05 10:39:32;;;;;;;8.23;4.18;;;;;;;16.30;51.53;97584.94;4962490;28;20062;-72
2021/05/05 10:42:27;;;;;;;7.82;4.10;;;;;;;16.39;51.88;97575.88;4961203;28;20023;-74
2021/05/05 10:45:00;;;;;;;8.27;3.90;;;;;;;16.22;52.60;97570.25;4949390;28;20101;-73
2021/05/05 10:47:27;;;;;;;9.20;4.80;;;;;;;16.21;52.35;97571.28;4961204;28;20114;-74
2021/05/05 10:50:05;;;;;;;7.50;3.97;;;;;;;16.18;52.99;97568.25;4966557;28;20035;-74
2021/05/05 10:52:34;;;;;;;6.85;3.88;;;;;;;16.36;53.76;97565.78;4961593;28;20031;-74
2021/05/05 10:54:59;;;;;;;9.57;4.60;;;;;;;16.18;53.54;97571.69;4973367;28;20066;-71
2021/05/05 10:57:26;;;;;;;8.73;4.70;;;;;;;16.17;54.94;97577.91;4959107;28;20468;-73
2021/05/05 10:59:57;;;;;;;8.60;4.28;;;;;;;16.02;54.04;97583.41;4960104;28;20110;-69
2021/05/05 11:02:46;;;;;;;8.52;4.60;;;;;;;15.97;53.78;97580.59;4962405;28;20030;-73
2021/05/05 11:05:38;;;;;;;9.77;4.47;;;;;;;16.06;53.24;97574.13;4959673;28;20549;-73
2021/05/05 11:08:07;;;;;;;9.23;4.72;;;;;;;16.02;52.78;97564.25;4944506;28;20125;-72
2021/05/05 11:10:36;;;;;;;7.57;4.32;;;;;;;16.20;52.97;97568.84;4973032;28;20106;-74
2021/05/05 11:13:02;;;;;;;11.68;5.65;;;;;;;16.22;52.82;97570.25;4961137;28;20036;-72
2021/05/05 11:15:42;;;;;;;10.23;5.13;;;;;;;16.01;52.75;97567.88;4960431;28;20023;-73
2021/05/05 11:18:26;;;;;;;10.20;5.80;;;;;;;15.98;53.74;97560.44;4956825;28;20058;-73
2021/05/05 11:20:56;;;;;;;10.93;5.13;;;;;;;15.84;54.86;97544.72;4959127;28;20114;-71
2021/05/05 11:23:38;;;;;;;9.68;5.10;;;;;;;15.97;54.01;97545.69;4961297;28;20035;-73
2021/05/05 11:26:13;;;;;;;10.70;5.40;;;;;;;16.10;53.56;97556.19;4956405;28;20027;-73
2021/05/05 11:28:59;;;;;;;7.65;5.18;;;;;;;16.04;52.81;97559.59;4954686;28;20028;-72
2021/05/05 11:31:48;;;;;;;20.33;5.68;;;;;;;16.10;53.47;97553.56;4960209;28;20026;-72
2021/05/05 11:35:04;;;;;;;11.20;5.53;;;;;;;15.94;52.96;97550.34;4959379;28;20026;-73
2021/05/05 11:37:29;;;;;;;8.55;4.95;;;;;;;16.17;52.85;97548.28;4971405;28;20038;-72
2021/05/05 11:39:57;;;;;;;8.00;5.35;;;;;;;16.31;52.06;97544.59;4961555;28;20088;-72
2021/05/05 11:42:26;;;;;;;26.30;6.95;;;;;;;16.42;51.92;97540.53;4954516;28;20038;-72
2021/05/05 11:44:53;;;;;;;10.07;4.95;;;;;;;16.63;51.98;97540.25;4952062;28;20027;-72